Arrington, Illinois
Current Conditions -  °F | °C
As of 5:55 PM on Friday 28 Nov 2014 (Local Time) from KFWC Reporting Station
Clear Clear  
Wind Chill: 34°   Ceiling: Unl
Heat Index: 39°   Visibility: 10mi
Dew Point: 31°   Wind: 7mph
Humidity: 74%   Direction: 140°SE
Pressure: 30.05"   Gusts: NA
Location:  38.4104°N, 88.5287°W
Report Text: KFWC 282355Z AUTO 14006KT 10SM CLR 04/00 A3005 RMK AO1 T00381005 10068 20023
Loading
Personal Weather Stations






























Interactive Weather Map New forecast layout! Learn more

10-Day Weather Forecast

Advertisements
Track Severe Weather on mobile